createdAt,value
2022-12-08T00:01:32.337Z,94694.75
2022-12-08T00:04:01.445Z,94686.16
2022-12-08T00:06:50.400Z,94689.78
2022-12-08T00:09:23.417Z,94690.44
2022-12-08T00:11:57.324Z,94692.34
2022-12-08T00:14:28.119Z,94689.53
2022-12-08T00:16:56.305Z,94691.13
2022-12-08T00:19:25.231Z,94695.03
2022-12-08T00:21:55.625Z,94690.13
2022-12-08T00:24:25.729Z,94694.25
2022-12-08T00:26:53.471Z,94687.94
2022-12-08T00:29:21.234Z,94681.13
2022-12-08T00:31:49.161Z,94684.78
2022-12-08T00:34:17.971Z,94677.19
2022-12-08T00:36:45.824Z,94673.25
2022-12-08T00:39:16.551Z,94676.00
2022-12-08T00:42:01.719Z,94669.97
2022-12-08T00:44:29.566Z,94670.25
2022-12-08T00:46:57.386Z,94669.56
2022-12-08T00:49:25.537Z,94668.59
2022-12-08T00:51:53.373Z,94668.13
2022-12-08T00:54:23.935Z,94663.16
2022-12-08T00:56:51.798Z,94666.19
2022-12-08T00:59:19.767Z,94661.75
2022-12-08T01:01:48.758Z,94662.56
2022-12-08T01:04:18.919Z,94659.06
2022-12-08T01:06:47.292Z,94661.72
2022-12-08T01:09:16.404Z,94659.84
2022-12-08T01:11:46.154Z,94665.19
2022-12-08T01:14:14.843Z,94658.38
2022-12-08T01:16:43.470Z,94670.72
2022-12-08T01:19:12.319Z,94663.13
2022-12-08T01:21:40.332Z,94665.00
2022-12-08T01:24:11.594Z,94661.25
2022-12-08T01:26:39.361Z,94666.59
2022-12-08T01:29:08.991Z,94664.72
2022-12-08T01:31:36.998Z,94662.19
2022-12-08T01:34:05.144Z,94656.28
2022-12-08T01:36:36.986Z,94655.84
2022-12-08T01:39:06.786Z,94651.13
2022-12-08T01:41:36.425Z,94650.19
2022-12-08T01:44:25.651Z,94648.91
2022-12-08T01:46:55.693Z,94638.94
2022-12-08T01:49:27.841Z,94643.66
2022-12-08T01:52:00.103Z,94633.13
2022-12-08T01:54:32.110Z,94637.25
2022-12-08T01:57:04.069Z,94638.97
2022-12-08T01:59:34.165Z,94635.63
2022-12-08T02:02:03.570Z,94631.03
2022-12-08T02:04:31.457Z,94628.78
2022-12-08T02:07:03.691Z,94629.41
2022-12-08T02:09:36.765Z,94622.91
2022-12-08T02:12:05.253Z,94624.78
2022-12-08T02:14:33.288Z,94617.97
2022-12-08T02:17:14.008Z,94609.75
2022-12-08T02:20:14.535Z,94604.69
2022-12-08T02:22:53.224Z,94620.84
2022-12-08T02:25:29.805Z,94604.88
2022-12-08T02:28:04.807Z,94600.59
2022-12-08T02:30:45.504Z,94599.19
2022-12-08T02:33:43.007Z,94598.25
2022-12-08T02:36:18.715Z,94598.69
2022-12-08T02:38:53.213Z,94580.38
2022-12-08T02:41:31.481Z,94590.16
2022-12-08T02:44:06.770Z,94593.63
2022-12-08T02:46:40.596Z,94592.22
2022-12-08T02:49:08.735Z,94589.09
2022-12-08T02:51:37.808Z,94584.22
2022-12-08T02:54:05.967Z,94586.06
2022-12-08T02:56:47.463Z,94577.91
2022-12-08T02:59:31.811Z,94576.19
2022-12-08T03:02:24.646Z,94573.81
2022-12-08T03:04:59.101Z,94566.38
2022-12-08T03:07:33.376Z,94573.47
2022-12-08T03:10:07.964Z,94568.25
2022-12-08T03:12:42.375Z,94558.13
2022-12-08T03:15:14.316Z,94560.16
2022-12-08T03:17:46.665Z,94563.13
2022-12-08T03:20:22.172Z,94562.00
2022-12-08T03:22:54.308Z,94558.34
2022-12-08T03:25:24.129Z,94564.19
2022-12-08T03:27:52.298Z,94558.84
2022-12-08T03:30:20.250Z,94562.06
2022-12-08T03:32:53.933Z,94563.28
2022-12-08T03:35:26.037Z,94555.44
2022-12-08T03:38:03.684Z,94548.31
2022-12-08T03:40:31.490Z,94548.47
2022-12-08T03:42:59.271Z,94542.94
2022-12-08T03:45:27.414Z,94542.00
2022-12-08T03:47:55.173Z,94550.66
2022-12-08T03:50:23.415Z,94545.75
2022-12-08T03:52:51.271Z,94545.00
2022-12-08T03:55:21.424Z,94548.94
2022-12-08T03:57:49.186Z,94535.97
2022-12-08T04:00:17.950Z,94535.16
2022-12-08T04:02:45.877Z,94538.94
2022-12-08T04:05:13.684Z,94548.59
2022-12-08T04:07:41.543Z,94531.84
2022-12-08T04:10:10.611Z,94536.41
2022-12-08T04:12:39.759Z,94534.81
2022-12-08T04:15:08.742Z,94537.06
2022-12-08T04:17:36.506Z,94523.47
2022-12-08T04:20:04.912Z,94526.66
2022-12-08T04:22:32.903Z,94524.59
2022-12-08T04:25:00.882Z,94535.47
2022-12-08T04:27:29.036Z,94528.56
2022-12-08T04:29:58.202Z,94529.25
2022-12-08T04:32:26.035Z,94527.91
2022-12-08T04:34:53.762Z,94526.31
2022-12-08T04:37:21.522Z,94517.81
2022-12-08T04:39:49.291Z,94522.41
2022-12-08T04:42:17.038Z,94513.53
2022-12-08T04:44:44.805Z,94511.97
2022-12-08T04:47:14.166Z,94511.66
2022-12-08T04:49:42.034Z,94513.88
2022-12-08T04:52:09.804Z,94509.44
2022-12-08T04:54:39.719Z,94509.44
2022-12-08T04:57:07.605Z,94508.63
2022-12-08T04:59:35.469Z,94510.06
2022-12-08T05:02:03.598Z,94513.28
2022-12-08T05:04:32.988Z,94508.84
2022-12-08T05:07:00.753Z,94514.66
2022-12-08T05:09:28.763Z,94513.09
2022-12-08T05:11:56.745Z,94509.13
2022-12-08T05:14:24.724Z,94506.75
2022-12-08T05:16:52.573Z,94522.63
2022-12-08T05:19:20.398Z,94514.38
2022-12-08T05:21:49.619Z,94504.41
2022-12-08T05:24:17.453Z,94510.13
2022-12-08T05:26:45.232Z,94511.16
2022-12-08T05:29:12.997Z,94505.03
2022-12-08T05:31:40.843Z,94497.91
2022-12-08T05:34:08.846Z,94490.00
2022-12-08T05:36:36.618Z,94501.53
2022-12-08T05:39:05.766Z,94495.69
2022-12-08T05:41:33.517Z,94499.25
2022-12-08T05:44:01.274Z,94489.00
2022-12-08T05:46:29.430Z,94485.00
2022-12-08T05:48:57.310Z,94492.06
2022-12-08T05:51:25.555Z,94493.50
2022-12-08T05:53:54.514Z,94492.22
2022-12-08T05:56:24.074Z,94488.44
2022-12-08T05:58:51.891Z,94484.69
2022-12-08T06:01:24.228Z,94489.56
2022-12-08T06:03:52.313Z,94495.69
2022-12-08T06:06:20.825Z,94496.81
2022-12-08T06:08:48.714Z,94489.50
2022-12-08T06:11:19.905Z,94486.16
2022-12-08T06:13:49.085Z,94480.69
2022-12-08T06:16:17.354Z,94481.50
2022-12-08T06:18:45.424Z,94488.13
2022-12-08T06:21:15.479Z,94484.94
2022-12-08T06:23:44.105Z,94482.38
2022-12-08T06:26:14.746Z,94482.66
2022-12-08T06:28:43.731Z,94481.41
2022-12-08T06:31:16.027Z,94483.16
2022-12-08T06:33:44.536Z,94485.38
2022-12-08T06:36:14.198Z,94486.47
2022-12-08T06:38:43.812Z,94489.28
2022-12-08T06:41:12.332Z,94483.59
2022-12-08T06:43:40.949Z,94486.97
2022-12-08T06:46:11.413Z,94479.59
2022-12-08T06:48:40.657Z,94481.81
2022-12-08T06:51:09.441Z,94479.59
2022-12-08T06:53:37.728Z,94468.72
2022-12-08T06:56:06.414Z,94472.97
2022-12-08T06:58:34.214Z,94475.03
2022-12-08T07:01:06.342Z,94470.59
2022-12-08T07:03:34.207Z,94482.72
2022-12-08T07:06:04.535Z,94472.13
2022-12-08T07:08:33.109Z,94501.94
2022-12-08T07:11:01.115Z,94510.34
2022-12-08T07:13:28.851Z,94509.63
2022-12-08T07:15:56.685Z,94514.19
2022-12-08T07:18:24.475Z,94519.25
2022-12-08T07:20:52.304Z,94515.59
2022-12-08T07:23:21.377Z,94512.22
2022-12-08T07:25:49.182Z,94524.09
2022-12-08T07:28:16.951Z,94518.19
2022-12-08T07:30:44.739Z,94521.28
2022-12-08T07:33:12.583Z,94524.28
2022-12-08T07:35:43.813Z,94524.69
2022-12-08T07:38:14.125Z,94527.44
2022-12-08T07:40:43.386Z,94517.00
2022-12-08T07:43:11.161Z,94517.25
2022-12-08T07:45:39.034Z,94515.91
2022-12-08T07:48:07.573Z,94516.66
2022-12-08T07:50:35.666Z,94512.31
2022-12-08T07:53:03.520Z,94512.81
2022-12-08T07:55:31.305Z,94519.00
2022-12-08T07:58:00.411Z,94514.53
2022-12-08T08:00:28.210Z,94523.66
2022-12-08T08:02:56.243Z,94522.97
2022-12-08T08:05:24.600Z,94512.94
2022-12-08T08:07:52.567Z,94521.03
2022-12-08T08:10:20.384Z,94516.13
2022-12-08T08:12:48.667Z,94510.72
2022-12-08T08:15:19.344Z,94515.25
2022-12-08T08:17:50.719Z,94520.91
2022-12-08T08:20:19.601Z,94513.75
2022-12-08T08:22:48.058Z,94520.81
2022-12-08T08:25:16.297Z,94526.25
2022-12-08T08:27:44.612Z,94530.94
2022-12-08T08:30:20.025Z,94514.06
2022-12-08T08:32:50.519Z,94511.66
2022-12-08T08:35:18.698Z,94516.38
2022-12-08T08:37:49.268Z,94515.63
2022-12-08T08:40:17.696Z,94507.63
2022-12-08T08:42:45.447Z,94507.59
2022-12-08T08:45:13.360Z,94505.38
2022-12-08T08:47:41.159Z,94511.31
2022-12-08T08:50:10.615Z,94506.56
2022-12-08T08:52:38.442Z,94509.31
2022-12-08T08:55:07.109Z,94513.91
2022-12-08T08:57:34.957Z,94511.44
2022-12-08T09:00:03.818Z,94508.84
2022-12-08T09:02:38.552Z,94509.00
2022-12-08T09:05:07.915Z,94518.91
2022-12-08T09:07:37.288Z,94493.44
2022-12-08T09:10:06.162Z,94511.00
2022-12-08T09:12:34.163Z,94510.06
2022-12-08T09:15:01.918Z,94506.44
2022-12-08T09:17:29.680Z,94507.09
2022-12-08T09:19:57.460Z,94512.41
2022-12-08T09:22:25.244Z,94514.94
2022-12-08T09:24:54.497Z,94498.72
2022-12-08T09:27:22.361Z,94493.66
2022-12-08T09:29:50.241Z,94500.44
2022-12-08T09:32:18.397Z,94494.78
2022-12-08T09:34:52.091Z,94494.50
2022-12-08T09:37:20.175Z,94491.84
2022-12-08T09:39:47.959Z,94498.91
2022-12-08T09:42:27.047Z,94480.22
2022-12-08T09:45:03.762Z,94485.13
2022-12-08T09:47:36.641Z,94483.50
2022-12-08T09:50:11.839Z,94474.06
2022-12-08T09:52:44.742Z,94479.06
2022-12-08T09:55:23.581Z,94473.44
2022-12-08T09:57:59.628Z,94464.88
2022-12-08T10:00:27.779Z,94461.25
2022-12-08T10:02:56.843Z,94466.16
2022-12-08T10:05:26.952Z,94461.25
2022-12-08T10:08:05.288Z,94461.03
2022-12-08T10:10:39.916Z,94459.22
2022-12-08T10:13:17.433Z,94441.13
2022-12-08T10:15:49.113Z,94449.50
2022-12-08T10:18:19.065Z,94444.56
2022-12-08T10:20:48.564Z,94446.72
2022-12-08T10:23:26.282Z,94441.03
2022-12-08T10:26:02.472Z,94439.19
2022-12-08T10:28:32.672Z,94429.13
2022-12-08T10:31:00.556Z,94431.94
2022-12-08T10:33:29.538Z,94431.38
2022-12-08T10:36:00.578Z,94426.97
2022-12-08T10:38:31.424Z,94428.63
2022-12-08T10:41:04.536Z,94419.19
2022-12-08T10:43:35.573Z,94416.47
2022-12-08T10:46:12.469Z,94400.38
2022-12-08T10:48:49.514Z,94404.31
2022-12-08T10:51:25.435Z,94407.19
2022-12-08T10:53:53.560Z,94404.97
2022-12-08T10:56:26.841Z,94397.53
2022-12-08T10:59:13.653Z,94396.03
2022-12-08T11:01:43.345Z,94404.31
2022-12-08T11:04:16.630Z,94394.84
2022-12-08T11:06:45.373Z,94391.13
2022-12-08T11:09:38.358Z,94388.44
2022-12-08T11:12:14.337Z,94374.44
2022-12-08T11:14:59.004Z,94386.00
2022-12-08T11:17:29.464Z,94374.00
2022-12-08T11:20:00.023Z,94374.72
2022-12-08T11:22:33.056Z,94373.47
2022-12-08T11:25:10.311Z,94366.38
2022-12-08T11:27:41.051Z,94370.66
2022-12-08T11:30:17.892Z,94369.59
2022-12-08T11:32:47.879Z,94367.56
2022-12-08T11:35:28.405Z,94371.88
2022-12-08T11:38:13.525Z,94359.56
2022-12-08T11:40:47.968Z,94351.78
2022-12-08T11:43:20.079Z,94342.78
2022-12-08T11:45:54.148Z,94351.94
2022-12-08T11:48:28.980Z,94349.84
2022-12-08T11:51:01.926Z,94348.28
2022-12-08T11:53:35.960Z,94347.34
2022-12-08T11:56:09.573Z,94352.75
2022-12-08T11:58:42.300Z,94358.28
2022-12-08T12:01:20.581Z,94345.59
2022-12-08T12:03:56.183Z,94349.69
2022-12-08T12:06:55.795Z,94341.47
2022-12-08T12:09:36.725Z,94328.25
2022-12-08T12:12:16.856Z,94326.84
2022-12-08T12:15:08.736Z,94331.13
2022-12-08T12:17:44.602Z,94332.97
2022-12-08T12:20:18.489Z,94332.91
2022-12-08T12:22:51.038Z,94328.97
2022-12-08T12:25:22.661Z,94325.81
2022-12-08T12:27:57.303Z,94325.19
2022-12-08T12:30:27.561Z,94332.72
2022-12-08T12:33:00.258Z,94333.34
2022-12-08T12:35:34.566Z,94328.88
2022-12-08T12:38:27.381Z,94335.34
2022-12-08T12:41:02.194Z,94322.34
2022-12-08T12:43:33.817Z,94325.81
2022-12-08T12:46:39.380Z,94317.94
2022-12-08T12:49:45.970Z,94312.25
2022-12-08T12:52:50.587Z,94318.28
2022-12-08T12:55:52.141Z,94305.94
2022-12-08T12:58:37.667Z,94309.28
2022-12-08T13:01:49.837Z,94305.41
2022-12-08T13:04:18.574Z,94306.66
2022-12-08T13:06:49.841Z,94306.56
2022-12-08T13:09:23.276Z,94310.41
2022-12-08T13:11:54.447Z,94301.34
2022-12-08T13:14:46.708Z,94300.41
2022-12-08T13:17:25.374Z,94295.09
2022-12-08T13:19:57.232Z,94298.41
2022-12-08T13:22:58.462Z,94289.94
2022-12-08T13:26:10.764Z,94276.72
2022-12-08T13:29:21.126Z,94278.31
2022-12-08T13:31:53.672Z,94281.72
2022-12-08T13:34:29.612Z,94282.69
2022-12-08T13:37:27.385Z,94286.38
2022-12-08T13:40:00.261Z,94279.44
2022-12-08T13:42:36.928Z,94282.59
2022-12-08T13:45:40.078Z,94280.84
2022-12-08T13:57:10.122Z,94277.72
2022-12-08T13:59:45.651Z,94280.16
2022-12-08T14:02:18.618Z,94281.03
2022-12-08T14:05:16.860Z,94284.19
2022-12-08T14:07:37.829Z,94283.50
2022-12-08T14:10:10.059Z,94286.28
2022-12-08T14:12:38.754Z,94301.97
2022-12-08T14:15:14.752Z,94293.38
2022-12-08T14:17:51.574Z,94296.47
2022-12-08T14:20:25.967Z,94296.19
2022-12-08T14:22:54.701Z,94290.19
2022-12-08T14:25:23.759Z,94284.50
2022-12-08T14:27:57.671Z,94278.66
2022-12-08T14:30:30.574Z,94282.34
2022-12-08T14:32:59.689Z,94269.16
2022-12-08T14:35:30.806Z,94279.09
2022-12-08T14:38:00.433Z,94283.59
2022-12-08T14:40:33.626Z,94276.75
2022-12-08T14:43:15.932Z,94272.38
2022-12-08T14:45:50.595Z,94270.22
2022-12-08T14:48:23.393Z,94271.59
2022-12-08T14:51:02.965Z,94268.09
2022-12-08T14:53:41.367Z,94271.41
2022-12-08T14:56:16.535Z,94277.19
2022-12-08T14:58:44.783Z,94276.84
2022-12-08T15:01:14.984Z,94270.72
2022-12-08T15:03:48.885Z,94279.72
2022-12-08T15:06:22.499Z,94277.44
2022-12-08T15:08:58.598Z,94274.75
2022-12-08T15:11:34.557Z,94282.50
2022-12-08T15:14:02.784Z,94272.78
2022-12-08T15:16:38.661Z,94271.03
2022-12-08T15:19:17.341Z,94273.16
2022-12-08T15:21:48.199Z,94266.81
2022-12-08T15:24:16.706Z,94274.03
2022-12-08T15:26:46.983Z,94274.41
2022-12-08T15:29:21.132Z,94278.31
2022-12-08T15:31:49.226Z,94281.03
2022-12-08T15:34:17.085Z,94270.84
2022-12-08T15:36:46.523Z,94275.38
2022-12-08T15:39:26.250Z,94269.75
2022-12-08T15:41:54.059Z,94264.06
2022-12-08T15:44:21.882Z,94271.81
2022-12-08T15:46:50.006Z,94273.56
2022-12-08T15:49:19.493Z,94279.88
2022-12-08T15:51:49.058Z,94279.09
2022-12-08T15:54:17.222Z,94283.34
2022-12-08T15:57:17.280Z,94279.09
2022-12-08T15:59:35.402Z,94275.59
2022-12-08T16:02:03.230Z,94269.28
2022-12-08T16:07:25.170Z,94262.31
2022-12-08T16:09:54.234Z,94261.50
2022-12-08T16:13:40.463Z,94264.63
2022-12-08T16:18:26.752Z,94271.44
2022-12-08T16:21:22.880Z,94269.03
2022-12-08T16:23:45.029Z,94268.72
2022-12-08T16:26:28.669Z,94271.25
2022-12-08T16:29:03.519Z,94267.78
2022-12-08T16:31:32.083Z,94260.53
2022-12-08T16:34:01.690Z,94254.81
2022-12-08T16:36:29.529Z,94250.38
2022-12-08T16:38:58.697Z,94250.06
2022-12-08T16:41:44.145Z,94249.84
2022-12-08T16:44:12.006Z,94239.88
2022-12-08T16:46:39.878Z,94248.16
2022-12-08T16:49:09.912Z,94249.19
2022-12-08T16:51:37.734Z,94245.09
2022-12-08T16:54:07.022Z,94251.56
2022-12-08T16:56:35.160Z,94253.19
2022-12-08T16:59:03.171Z,94249.00
2022-12-08T17:01:31.086Z,94251.88
2022-12-08T17:04:30.043Z,94252.25
2022-12-08T17:06:46.749Z,94244.69
2022-12-08T17:09:15.889Z,94245.16
2022-12-08T17:11:44.081Z,94246.00
2022-12-08T17:14:12.642Z,94237.50
2022-12-08T17:16:41.064Z,94242.44
2022-12-08T17:19:08.899Z,94239.28
2022-12-08T17:21:36.946Z,94236.78
2022-12-08T17:24:05.210Z,94242.94
2022-12-08T17:26:35.359Z,94240.91
2022-12-08T17:29:04.160Z,94239.47
2022-12-08T17:31:33.408Z,94232.22
2022-12-08T17:34:02.024Z,94225.31
2022-12-08T17:36:30.402Z,94229.09
2022-12-08T17:39:00.734Z,94233.50
2022-12-08T17:41:29.010Z,94230.66
2022-12-08T17:43:58.491Z,94236.81
2022-12-08T17:46:26.510Z,94232.84
2022-12-08T17:48:55.045Z,94235.06
2022-12-08T17:51:22.833Z,94231.75
2022-12-08T17:53:51.236Z,94224.50
2022-12-08T17:56:20.665Z,94216.63
2022-12-08T17:58:54.337Z,94222.13
2022-12-08T18:01:25.068Z,94217.06
2022-12-08T18:03:52.928Z,94223.69
2022-12-08T18:06:21.247Z,94231.75
2022-12-08T18:08:50.229Z,94235.53
2022-12-08T18:11:20.088Z,94233.31
2022-12-08T18:13:49.199Z,94234.09
2022-12-08T18:16:18.748Z,94234.72
2022-12-08T18:18:48.192Z,94230.75
2022-12-08T18:21:23.060Z,94229.31
2022-12-08T18:23:52.192Z,94221.41
2022-12-08T18:26:21.315Z,94222.66
2022-12-08T18:28:49.268Z,94230.38
2022-12-08T18:31:19.362Z,94208.91
2022-12-08T18:33:49.432Z,94215.03
2022-12-08T18:36:19.353Z,94215.81
2022-12-08T18:38:48.118Z,94217.25
2022-12-08T18:41:18.094Z,94216.50
2022-12-08T18:43:46.322Z,94210.66
2022-12-08T18:46:15.863Z,94198.81
2022-12-08T18:48:45.929Z,94199.41
2022-12-08T18:51:17.509Z,94209.00
2022-12-08T18:53:46.153Z,94201.41
2022-12-08T18:56:23.130Z,94209.09
2022-12-08T18:58:50.997Z,94207.06
2022-12-08T19:01:18.953Z,94228.22
2022-12-08T19:04:12.061Z,94217.69
2022-12-08T19:06:39.190Z,94216.09
2022-12-08T19:09:07.541Z,94223.91
2022-12-08T19:11:35.384Z,94226.38
2022-12-08T19:14:03.392Z,94228.31
2022-12-08T19:16:31.397Z,94226.47
2022-12-08T19:18:59.275Z,94216.66
2022-12-08T19:21:27.180Z,94218.13
2022-12-08T19:23:58.385Z,94225.81
2022-12-08T19:26:26.892Z,94222.56
2022-12-08T19:28:55.043Z,94220.88
2022-12-08T19:31:23.272Z,94215.41
2022-12-08T19:33:51.271Z,94213.03
2022-12-08T19:36:21.019Z,94212.09
2022-12-08T19:39:06.961Z,94214.06
2022-12-08T19:41:55.023Z,94207.03
2022-12-08T19:44:42.967Z,94208.81
2022-12-08T19:47:10.976Z,94215.00
2022-12-08T19:49:38.997Z,94212.84
2022-12-08T19:52:07.447Z,94217.00
2022-12-08T19:54:36.427Z,94211.03
2022-12-08T19:57:05.620Z,94212.84
2022-12-08T19:59:33.416Z,94214.44
2022-12-08T20:02:01.274Z,94211.91
2022-12-08T20:04:29.231Z,94211.38
2022-12-08T20:06:58.086Z,94212.50
2022-12-08T20:09:26.199Z,94203.03
2022-12-08T20:11:55.000Z,94205.28
2022-12-08T20:14:25.288Z,94206.63
2022-12-08T20:16:53.168Z,94203.94
2022-12-08T20:19:21.104Z,94215.44
2022-12-08T20:21:49.150Z,94201.78
2022-12-08T20:24:17.728Z,94206.03
2022-12-08T20:26:45.610Z,94210.13
2022-12-08T20:29:16.825Z,94206.25
2022-12-08T20:31:46.389Z,94205.41
2022-12-08T20:34:15.226Z,94204.16
2022-12-08T20:36:43.075Z,94204.44
2022-12-08T20:39:13.658Z,94197.06
2022-12-08T20:41:41.561Z,94208.50
2022-12-08T20:44:09.660Z,94207.44
2022-12-08T20:46:37.512Z,94192.63
2022-12-08T20:49:06.870Z,94219.72
2022-12-08T20:51:35.236Z,94211.81
2022-12-08T20:54:04.449Z,94204.13
2022-12-08T20:56:32.869Z,94196.00
2022-12-08T20:59:00.789Z,94200.09
2022-12-08T21:01:28.998Z,94202.72
2022-12-08T21:03:57.232Z,94199.56
2022-12-08T21:06:28.135Z,94192.81
2022-12-08T21:08:56.184Z,94191.38
2022-12-08T21:11:24.224Z,94197.75
2022-12-08T21:13:52.447Z,94180.72
2022-12-08T21:16:20.467Z,94184.53
2022-12-08T21:18:48.637Z,94184.13
2022-12-08T21:21:17.863Z,94187.63
2022-12-08T21:23:47.326Z,94175.84
2022-12-08T21:26:17.514Z,94179.94
2022-12-08T21:28:46.651Z,94185.16
2022-12-08T21:31:17.058Z,94188.47
2022-12-08T21:33:45.130Z,94188.59
2022-12-08T21:36:15.901Z,94178.19
2022-12-08T21:38:44.756Z,94182.28
2022-12-08T21:41:15.914Z,94184.19
2022-12-08T21:43:44.129Z,94193.00
2022-12-08T21:46:16.910Z,94188.41
2022-12-08T21:48:45.104Z,94192.16
2022-12-08T21:51:13.314Z,94190.88
2022-12-08T21:53:41.356Z,94195.16
2022-12-08T21:56:09.937Z,94180.84
2022-12-08T21:58:39.811Z,94186.56
2022-12-08T22:01:09.440Z,94200.91
2022-12-08T22:03:39.191Z,94200.81
2022-12-08T22:06:08.211Z,94193.28
2022-12-08T22:08:36.439Z,94191.91
2022-12-08T22:11:05.307Z,94192.34
2022-12-08T22:13:36.622Z,94186.50
2022-12-08T22:16:08.123Z,94191.41
2022-12-08T22:18:36.690Z,94192.84
2022-12-08T22:21:09.436Z,94179.75
2022-12-08T22:23:37.793Z,94187.16
2022-12-08T22:26:06.424Z,94176.50
2022-12-08T22:28:36.249Z,94174.91
2022-12-08T22:31:10.992Z,94164.41
2022-12-08T22:33:40.911Z,94170.09
2022-12-08T22:36:14.541Z,94159.66
2022-12-08T22:38:42.450Z,94162.03
2022-12-08T22:41:10.228Z,94168.66
2022-12-08T22:43:38.387Z,94166.56
2022-12-08T22:46:12.100Z,94148.88
2022-12-08T22:48:40.629Z,94153.22
2022-12-08T22:51:08.792Z,94153.66
2022-12-08T22:53:36.671Z,94162.28
2022-12-08T22:56:05.408Z,94164.69
2022-12-08T22:58:33.437Z,94170.72
2022-12-08T23:01:01.287Z,94156.38
2022-12-08T23:03:30.760Z,94162.84
2022-12-08T23:06:00.949Z,94156.38
2022-12-08T23:08:29.316Z,94161.91
2022-12-08T23:10:57.487Z,94152.91
2022-12-08T23:13:25.503Z,94161.91
2022-12-08T23:15:53.254Z,94151.91
2022-12-08T23:18:21.186Z,94156.00
2022-12-08T23:20:50.389Z,94153.03
2022-12-08T23:23:18.176Z,94144.56
2022-12-08T23:25:46.054Z,94121.59
2022-12-08T23:28:13.959Z,94129.00
2022-12-08T23:30:42.113Z,94125.47
2022-12-08T23:33:10.056Z,94131.44
2022-12-08T23:35:37.976Z,94133.75
2022-12-08T23:38:07.168Z,94124.81
2022-12-08T23:40:35.404Z,94118.41
2022-12-08T23:43:03.435Z,94116.38
2022-12-08T23:45:31.320Z,94117.66
2022-12-08T23:47:59.222Z,94127.72
2022-12-08T23:50:27.142Z,94126.03
2022-12-08T23:52:54.903Z,94146.50
2022-12-08T23:55:24.151Z,94112.81
2022-12-08T23:57:52.024Z,94120.44
